createdAt,value
2023-04-02T00:01:23.617Z,7.16
2023-04-02T00:03:53.996Z,7.13
2023-04-02T00:06:30.220Z,7.08
2023-04-02T00:09:04.561Z,7.08
2023-04-02T00:11:38.019Z,7.07
2023-04-02T00:14:15.216Z,7.07
2023-04-02T00:16:41.843Z,7.08
2023-04-02T00:19:16.744Z,7.08
2023-04-02T00:21:46.538Z,7.07
2023-04-02T00:24:19.366Z,7.03
2023-04-02T00:26:48.884Z,7.02
2023-04-02T00:29:16.865Z,7.05
2023-04-02T00:31:46.422Z,7.04
2023-04-02T00:34:23.779Z,7.03
2023-04-02T00:36:52.401Z,6.98
2023-04-02T00:39:23.450Z,6.95
2023-04-02T00:42:05.081Z,6.96
2023-04-02T00:44:34.432Z,6.96
2023-04-02T00:47:21.340Z,6.98
2023-04-02T00:49:53.662Z,6.98
2023-04-02T00:52:25.587Z,6.91
2023-04-02T00:55:17.756Z,6.92
2023-04-02T00:57:45.142Z,6.89
2023-04-02T01:00:30.731Z,6.85
2023-04-02T01:03:13.129Z,6.84
2023-04-02T01:05:42.516Z,6.81
2023-04-02T01:08:23.239Z,6.81
2023-04-02T01:11:07.782Z,6.79
2023-04-02T01:13:44.731Z,6.82
2023-04-02T01:16:22.753Z,6.79
2023-04-02T01:19:32.143Z,6.78
2023-04-02T01:22:15.325Z,6.73
2023-04-02T01:24:44.011Z,6.69
2023-04-02T01:27:16.281Z,6.70
2023-04-02T01:29:48.595Z,6.68
2023-04-02T01:32:19.725Z,6.69
2023-04-02T01:34:48.592Z,6.67
2023-04-02T01:37:50.702Z,6.67
2023-04-02T01:40:38.105Z,6.64
2023-04-02T01:43:29.522Z,6.60
2023-04-02T01:45:58.320Z,6.57
2023-04-02T01:48:30.121Z,6.55
2023-04-02T01:50:59.720Z,6.57
2023-04-02T01:53:30.287Z,6.57
2023-04-02T01:56:00.123Z,6.54
2023-04-02T01:58:31.583Z,6.50
2023-04-02T02:01:05.951Z,6.47
2023-04-02T02:03:33.652Z,6.50
2023-04-02T02:06:02.121Z,6.53
2023-04-02T02:08:44.618Z,6.52
2023-04-02T02:11:15.473Z,6.50
2023-04-02T02:13:53.138Z,6.49
2023-04-02T02:16:20.367Z,6.49
2023-04-02T02:18:54.875Z,6.44
2023-04-02T02:21:39.872Z,6.44
2023-04-02T02:24:17.089Z,6.45
2023-04-02T02:26:46.214Z,6.44
2023-04-02T02:29:18.367Z,6.41
2023-04-02T02:31:51.155Z,6.39
2023-04-02T02:34:22.892Z,6.38
2023-04-02T02:37:04.199Z,6.32
2023-04-02T02:39:39.074Z,6.27
2023-04-02T02:42:20.718Z,6.25
2023-04-02T02:44:50.424Z,6.21
2023-04-02T02:47:19.254Z,6.18
2023-04-02T02:49:54.012Z,6.15
2023-04-02T02:52:28.812Z,6.12
2023-04-02T02:55:00.190Z,6.10
2023-04-02T02:57:31.863Z,6.07
2023-04-02T03:00:00.975Z,6.04
2023-04-02T03:02:28.634Z,6.02
2023-04-02T03:04:56.609Z,6.02
2023-04-02T03:07:26.505Z,6.00
2023-04-02T03:10:05.701Z,6.03
2023-04-02T03:12:43.935Z,6.03
2023-04-02T03:15:19.183Z,5.95
2023-04-02T03:17:51.988Z,5.94
2023-04-02T03:20:35.000Z,5.92
2023-04-02T03:23:13.065Z,5.91
2023-04-02T03:25:49.145Z,5.90
2023-04-02T03:28:27.456Z,5.90
2023-04-02T03:31:02.848Z,5.86
2023-04-02T03:33:34.856Z,5.83
2023-04-02T03:36:12.854Z,5.81
2023-04-02T03:38:47.017Z,5.79
2023-04-02T03:41:29.764Z,5.79
2023-04-02T03:44:04.399Z,5.80
2023-04-02T03:46:46.386Z,5.79
2023-04-02T03:49:29.590Z,5.78
2023-04-02T03:52:04.010Z,5.77
2023-04-02T03:54:31.412Z,5.78
2023-04-02T03:56:58.530Z,5.72
2023-04-02T03:59:36.976Z,5.75
2023-04-02T04:02:34.460Z,5.73
2023-04-02T04:05:03.547Z,5.73
2023-04-02T04:07:34.628Z,5.70
2023-04-02T04:10:02.905Z,5.69
2023-04-02T04:12:47.062Z,5.70
2023-04-02T04:15:33.133Z,5.67
2023-04-02T04:18:05.911Z,5.65
2023-04-02T04:20:41.909Z,5.61
2023-04-02T04:23:19.936Z,5.52
2023-04-02T04:25:49.393Z,5.49
2023-04-02T04:28:38.321Z,5.52
2023-04-02T04:31:30.829Z,5.49
2023-04-02T04:34:05.134Z,5.46
2023-04-02T04:36:47.908Z,5.45
2023-04-02T04:39:23.447Z,5.44
2023-04-02T04:41:51.805Z,5.43
2023-04-02T04:44:36.090Z,5.41
2023-04-02T04:47:26.552Z,5.37
2023-04-02T04:50:04.285Z,5.27
2023-04-02T04:52:36.599Z,5.22
2023-04-02T04:55:04.157Z,5.20
2023-04-02T04:57:37.878Z,5.21
2023-04-02T05:00:18.029Z,5.17
2023-04-02T05:03:03.368Z,5.15
2023-04-02T05:05:33.685Z,5.17
2023-04-02T05:08:25.832Z,5.07
2023-04-02T05:10:57.609Z,4.98
2023-04-02T05:13:28.726Z,4.92
2023-04-02T05:16:08.066Z,4.90
2023-04-02T05:18:40.303Z,4.87
2023-04-02T05:21:35.606Z,4.78
2023-04-02T05:24:29.913Z,4.73
2023-04-02T05:27:03.251Z,4.67
2023-04-02T05:29:36.141Z,4.60
2023-04-02T05:32:21.103Z,4.55
2023-04-02T05:34:53.073Z,4.51
2023-04-02T05:37:22.486Z,4.50
2023-04-02T05:39:58.431Z,4.42
2023-04-02T05:42:29.355Z,4.38
2023-04-02T05:45:06.982Z,4.37
2023-04-02T05:47:35.891Z,4.28
2023-04-02T05:50:08.593Z,4.27
2023-04-02T05:52:42.036Z,4.24
2023-04-02T05:55:11.431Z,4.20
2023-04-02T05:57:51.242Z,4.17
2023-04-02T06:00:39.906Z,4.17
2023-04-02T06:03:18.103Z,4.12
2023-04-02T06:05:46.660Z,4.12
2023-04-02T06:08:31.414Z,4.08
2023-04-02T06:11:07.720Z,4.08
2023-04-02T06:13:34.679Z,4.09
2023-04-02T06:16:01.541Z,4.08
2023-04-02T06:18:33.851Z,4.10
2023-04-02T06:21:02.091Z,4.03
2023-04-02T06:23:41.637Z,4.00
2023-04-02T06:26:27.021Z,4.00
2023-04-02T06:29:04.438Z,4.04
2023-04-02T06:31:36.586Z,4.07
2023-04-02T06:34:06.909Z,4.03
2023-04-02T06:36:33.711Z,4.06
2023-04-02T06:39:07.334Z,4.10
2023-04-02T06:41:33.832Z,4.11
2023-04-02T06:44:06.577Z,4.08
2023-04-02T06:46:44.485Z,4.07
2023-04-02T06:49:33.245Z,4.09
2023-04-02T06:52:02.549Z,4.12
2023-04-02T06:54:29.026Z,4.17
2023-04-02T06:56:58.662Z,4.16
2023-04-02T06:59:25.289Z,4.13
2023-04-02T07:01:58.836Z,4.10
2023-04-02T07:04:25.757Z,4.13
2023-04-02T07:06:53.293Z,4.12
2023-04-02T07:09:19.703Z,4.14
2023-04-02T07:11:46.363Z,4.18
2023-04-02T07:14:13.341Z,4.24
2023-04-02T07:16:42.117Z,4.20
2023-04-02T07:19:17.593Z,4.22
2023-04-02T07:21:43.955Z,4.26
2023-04-02T07:24:10.340Z,4.27
2023-04-02T07:26:36.717Z,4.22
2023-04-02T07:29:03.654Z,4.20
2023-04-02T07:31:30.191Z,4.19
2023-04-02T07:34:02.549Z,4.17
2023-04-02T07:36:30.628Z,4.07
2023-04-02T07:38:57.228Z,4.11
2023-04-02T07:41:23.810Z,4.16
2023-04-02T07:43:50.556Z,4.20
2023-04-02T07:46:19.062Z,4.22
2023-04-02T07:48:46.461Z,4.24
2023-04-02T07:51:21.641Z,4.29
2023-04-02T07:53:54.821Z,4.29
2023-04-02T07:56:23.268Z,4.23
2023-04-02T07:58:49.814Z,4.19
2023-04-02T08:01:24.052Z,4.17
2023-04-02T08:03:52.999Z,4.12
2023-04-02T08:06:21.310Z,4.14
2023-04-02T08:08:47.675Z,4.14
2023-04-02T08:11:14.162Z,4.15
2023-04-02T08:13:40.626Z,4.19
2023-04-02T08:16:07.750Z,4.19
2023-04-02T08:18:35.117Z,4.19
2023-04-02T08:21:02.200Z,4.16
2023-04-02T08:23:28.728Z,4.14
2023-04-02T08:25:55.896Z,4.16
2023-04-02T08:28:22.956Z,4.18
2023-04-02T08:30:49.619Z,4.16
2023-04-02T08:33:17.942Z,4.11
2023-04-02T08:35:48.538Z,4.14
2023-04-02T08:38:16.657Z,4.21
2023-04-02T08:40:51.103Z,4.32
2023-04-02T08:43:28.845Z,4.32
2023-04-02T08:45:58.297Z,4.35
2023-04-02T08:48:24.711Z,4.39
2023-04-02T08:50:52.088Z,4.42
2023-04-02T08:53:27.290Z,4.48
2023-04-02T08:56:08.554Z,4.42
2023-04-02T08:58:45.019Z,4.38
2023-04-02T09:01:17.043Z,4.35
2023-04-02T09:03:47.892Z,4.35
2023-04-02T09:06:18.296Z,4.36
2023-04-02T09:08:47.280Z,4.30
2023-04-02T09:11:26.491Z,4.29
2023-04-02T09:14:00.600Z,4.30
2023-04-02T09:16:43.549Z,4.34
2023-04-02T09:19:35.509Z,4.47
2023-04-02T09:22:25.356Z,4.52
2023-04-02T09:24:54.159Z,4.53
2023-04-02T09:27:23.480Z,4.59
2023-04-02T09:29:55.053Z,4.61
2023-04-02T09:32:37.267Z,4.72
2023-04-02T09:35:24.580Z,4.84
2023-04-02T09:38:07.604Z,4.86
2023-04-02T09:40:46.815Z,4.92
2023-04-02T09:43:16.633Z,5.10
2023-04-02T09:45:44.858Z,5.47
2023-04-02T09:48:32.826Z,5.82
2023-04-02T09:51:11.357Z,6.13
2023-04-02T09:53:46.642Z,6.42
2023-04-02T09:56:19.399Z,6.59
2023-04-02T09:59:13.286Z,6.78
2023-04-02T10:01:45.578Z,6.89
2023-04-02T10:04:44.476Z,6.94
2023-04-02T10:07:44.540Z,6.90
2023-04-02T10:10:33.046Z,7.01
2023-04-02T10:13:01.397Z,7.06
2023-04-02T10:15:35.378Z,7.19
2023-04-02T10:18:15.057Z,7.30
2023-04-02T10:20:50.952Z,7.34
2023-04-02T10:23:19.461Z,7.43
2023-04-02T10:26:17.841Z,7.53
2023-04-02T10:29:27.166Z,7.65
2023-04-02T10:32:03.904Z,7.59
2023-04-02T10:34:54.014Z,7.55
2023-04-02T10:37:41.986Z,7.66
2023-04-02T10:40:29.258Z,7.78
2023-04-02T10:43:33.050Z,7.88
2023-04-02T10:46:26.189Z,8.06
2023-04-02T10:49:32.399Z,8.03
2023-04-02T10:52:03.903Z,8.03
2023-04-02T10:54:41.414Z,8.16
2023-04-02T10:57:16.651Z,8.28
2023-04-02T10:59:52.403Z,8.36
2023-04-02T11:02:32.128Z,8.38
2023-04-02T11:05:06.990Z,8.44
2023-04-02T11:07:46.252Z,8.46
2023-04-02T11:10:17.420Z,8.48
2023-04-02T11:12:52.578Z,8.56
2023-04-02T11:15:20.407Z,8.61
2023-04-02T11:17:47.861Z,8.74
2023-04-02T11:20:48.338Z,8.77
2023-04-02T11:23:18.752Z,8.85
2023-04-02T11:25:46.119Z,8.95
2023-04-02T11:28:13.723Z,8.96
2023-04-02T11:30:40.472Z,8.89
2023-04-02T11:33:43.097Z,8.89
2023-04-02T11:36:48.933Z,8.89
2023-04-02T11:39:53.553Z,8.99
2023-04-02T11:42:42.861Z,9.07
2023-04-02T11:45:21.544Z,9.10
2023-04-02T11:48:16.634Z,9.18
2023-04-02T11:50:45.044Z,9.18
2023-04-02T11:53:23.290Z,9.21
2023-04-02T11:56:18.686Z,9.16
2023-04-02T11:59:18.949Z,9.19
2023-04-02T12:02:00.360Z,9.25
2023-04-02T12:04:47.378Z,9.36
2023-04-02T12:07:52.136Z,9.35
2023-04-02T12:10:27.714Z,9.32
2023-04-02T12:12:54.158Z,9.43
2023-04-02T12:15:34.251Z,9.49
2023-04-02T12:18:21.276Z,9.53
2023-04-02T12:20:53.158Z,9.59
2023-04-02T12:23:31.284Z,9.64
2023-04-02T12:26:24.192Z,9.67
2023-04-02T12:28:50.550Z,9.68
2023-04-02T12:31:20.262Z,9.66
2023-04-02T12:33:46.752Z,9.64
2023-04-02T12:36:16.058Z,9.82
2023-04-02T12:38:56.969Z,9.97
2023-04-02T12:41:30.924Z,9.97
2023-04-02T12:44:06.492Z,9.94
2023-04-02T12:46:35.534Z,9.95
2023-04-02T12:49:23.512Z,9.99
2023-04-02T12:51:51.816Z,10.06
2023-04-02T12:54:19.630Z,10.05
2023-04-02T12:56:47.615Z,10.09
2023-04-02T12:59:28.682Z,10.14
2023-04-02T13:02:00.121Z,10.19
2023-04-02T13:04:27.478Z,10.24
2023-04-02T13:06:55.768Z,10.19
2023-04-02T13:09:35.000Z,10.18
2023-04-02T13:12:02.748Z,10.19
2023-04-02T13:14:29.880Z,10.27
2023-04-02T13:16:56.587Z,10.21
2023-04-02T13:19:49.240Z,10.25
2023-04-02T13:22:35.909Z,10.30
2023-04-02T13:25:02.270Z,10.30
2023-04-02T13:27:28.674Z,10.42
2023-04-02T13:29:55.210Z,10.42
2023-04-02T13:32:22.214Z,10.38
2023-04-02T13:34:48.682Z,10.32
2023-04-02T13:37:15.242Z,10.32
2023-04-02T13:39:41.645Z,10.38
2023-04-02T13:42:11.649Z,10.43
2023-04-02T13:44:38.185Z,10.55
2023-04-02T13:47:04.694Z,10.60
2023-04-02T13:49:32.015Z,10.60
2023-04-02T13:52:05.530Z,10.56
2023-04-02T13:54:38.634Z,10.56
2023-04-02T13:57:05.021Z,10.56
2023-04-02T13:59:31.432Z,10.50
2023-04-02T14:02:05.615Z,10.56
2023-04-02T14:04:38.261Z,10.61
2023-04-02T14:07:43.607Z,10.71
2023-04-02T14:10:53.141Z,10.79
2023-04-02T14:13:45.008Z,10.83
2023-04-02T14:16:36.645Z,10.83
2023-04-02T14:19:23.894Z,10.81
2023-04-02T14:22:27.028Z,10.83
2023-04-02T14:25:31.714Z,10.76
2023-04-02T14:28:08.072Z,10.76
2023-04-02T14:30:50.052Z,10.70
2023-04-02T14:33:43.305Z,10.60
2023-04-02T14:36:23.852Z,10.58
2023-04-02T14:38:56.113Z,10.60
2023-04-02T14:41:30.572Z,10.63
2023-04-02T14:44:03.318Z,10.65
2023-04-02T14:46:32.463Z,10.63
2023-04-02T14:49:20.827Z,10.69
2023-04-02T14:51:56.256Z,10.65
2023-04-02T14:54:35.947Z,10.58
2023-04-02T14:57:12.539Z,10.59
2023-04-02T14:59:57.102Z,10.55
2023-04-02T15:02:51.515Z,10.51
2023-04-02T15:05:24.395Z,10.52
2023-04-02T15:07:57.651Z,10.55
2023-04-02T15:10:52.041Z,10.50
2023-04-02T15:13:22.750Z,10.38
2023-04-02T15:15:56.583Z,10.36
2023-04-02T15:18:23.205Z,10.34
2023-04-02T15:21:19.331Z,10.30
2023-04-02T15:24:05.678Z,10.41
2023-04-02T15:26:56.882Z,10.44
2023-04-02T15:29:39.382Z,10.49
2023-04-02T15:32:29.506Z,10.51
2023-04-02T15:35:49.804Z,10.51
2023-04-02T15:38:26.458Z,10.55
2023-04-02T15:41:02.118Z,10.53
2023-04-02T15:43:43.917Z,10.50
2023-04-02T15:46:58.430Z,10.53
2023-04-02T15:49:41.873Z,10.55
2023-04-02T15:52:20.919Z,10.59
2023-04-02T15:58:44.920Z,10.50
2023-04-02T16:01:23.659Z,10.46
2023-04-02T16:04:19.529Z,10.48
2023-04-02T16:07:19.101Z,10.43
2023-04-02T16:09:59.779Z,10.48
2023-04-02T16:12:27.637Z,10.46
2023-04-02T16:15:27.250Z,10.42
2023-04-02T16:18:02.520Z,10.34
2023-04-02T16:20:36.857Z,10.32
2023-04-02T16:23:12.590Z,10.31
2023-04-02T16:25:48.783Z,10.25
2023-04-02T16:28:26.163Z,10.21
2023-04-02T16:31:04.716Z,10.17
2023-04-02T16:34:05.781Z,10.13
2023-04-02T16:36:58.214Z,10.08
2023-04-02T16:39:49.142Z,9.99
2023-04-02T16:42:45.375Z,9.91
2023-04-02T16:45:18.033Z,9.82
2023-04-02T16:47:58.740Z,9.77
2023-04-02T16:50:39.506Z,9.72
2023-04-02T16:53:37.910Z,9.69
2023-04-02T16:56:36.438Z,9.63
2023-04-02T16:59:14.635Z,9.56
2023-04-02T17:01:59.176Z,9.44
2023-04-02T17:04:52.402Z,9.36
2023-04-02T17:07:43.688Z,9.35
2023-04-02T17:10:24.264Z,9.33
2023-04-02T17:13:15.318Z,9.34
2023-04-02T17:15:45.924Z,9.28
2023-04-02T17:18:20.997Z,9.18
2023-04-02T17:20:48.220Z,9.13
2023-04-02T17:23:16.936Z,9.11
2023-04-02T17:26:07.095Z,9.10
2023-04-02T17:28:37.836Z,9.08
2023-04-02T17:31:16.686Z,9.05
2023-04-02T17:33:43.216Z,9.00
2023-04-02T17:36:29.806Z,8.95
2023-04-02T17:39:18.005Z,8.93
2023-04-02T17:42:10.329Z,8.85
2023-04-02T17:45:08.989Z,8.82
2023-04-02T17:48:14.052Z,8.80
2023-04-02T17:51:00.345Z,8.77
2023-04-02T17:53:31.388Z,8.71
2023-04-02T17:56:10.311Z,8.66
2023-04-02T17:59:12.769Z,8.64
2023-04-02T18:01:50.682Z,8.59
2023-04-02T18:04:35.418Z,8.56
2023-04-02T18:07:23.473Z,8.51
2023-04-02T18:10:14.649Z,8.47
2023-04-02T18:12:56.966Z,8.47
2023-04-02T18:15:41.549Z,8.44
2023-04-02T18:18:14.031Z,8.42
2023-04-02T18:20:54.513Z,8.39
2023-04-02T18:23:20.862Z,8.32
2023-04-02T18:26:17.783Z,8.27
2023-04-02T18:29:08.067Z,8.22
2023-04-02T18:31:54.291Z,8.20
2023-04-02T18:35:14.416Z,8.13
2023-04-02T18:38:18.344Z,8.08
2023-04-02T18:41:01.733Z,8.03
2023-04-02T18:43:31.124Z,7.96
2023-04-02T18:46:26.326Z,7.89
2023-04-02T18:48:57.559Z,7.83
2023-04-02T18:51:27.088Z,7.80
2023-04-02T18:54:25.802Z,7.74
2023-04-02T18:56:52.216Z,7.67
2023-04-02T18:59:28.697Z,7.65
2023-04-02T19:01:58.381Z,7.61
2023-04-02T19:04:32.681Z,7.60
2023-04-02T19:07:16.355Z,7.56
2023-04-02T19:09:50.662Z,7.53
2023-04-02T19:12:22.163Z,7.52
2023-04-02T19:14:51.073Z,7.48
2023-04-02T19:17:35.944Z,7.47
2023-04-02T19:20:24.704Z,7.47
2023-04-02T19:23:13.819Z,7.44
2023-04-02T19:26:06.952Z,7.38
2023-04-02T19:29:04.020Z,7.32
2023-04-02T19:31:58.265Z,7.24
2023-04-02T19:34:41.609Z,7.18
2023-04-02T19:37:17.975Z,7.19
2023-04-02T19:40:27.053Z,7.17
2023-04-02T19:42:54.332Z,7.11
2023-04-02T19:45:33.048Z,7.08
2023-04-02T19:48:03.558Z,7.04
2023-04-02T19:50:30.497Z,7.00
2023-04-02T19:52:57.633Z,6.96
2023-04-02T19:55:24.120Z,6.90
2023-04-02T19:57:52.670Z,6.87
2023-04-02T20:00:21.295Z,6.88
2023-04-02T20:02:47.716Z,6.89
2023-04-02T20:05:14.294Z,6.88
2023-04-02T20:07:40.840Z,6.90
2023-04-02T20:10:08.061Z,6.91
2023-04-02T20:12:34.447Z,6.88
2023-04-02T20:15:00.914Z,6.91
2023-04-02T20:17:28.299Z,6.91
2023-04-02T20:19:54.742Z,6.88
2023-04-02T20:22:21.184Z,6.85
2023-04-02T20:24:47.580Z,6.81
2023-04-02T20:27:14.050Z,6.81
2023-04-02T20:29:42.313Z,6.79
2023-04-02T20:32:09.880Z,6.80
2023-04-02T20:34:36.755Z,6.77
2023-04-02T20:37:03.221Z,6.75
2023-04-02T20:39:29.726Z,6.74
2023-04-02T20:42:01.064Z,6.69
2023-04-02T20:44:28.412Z,6.67
2023-04-02T20:46:55.370Z,6.64
2023-04-02T20:49:21.824Z,6.61
2023-04-02T20:51:48.652Z,6.58
2023-04-02T20:54:15.953Z,6.55
2023-04-02T20:56:43.177Z,6.53
2023-04-02T20:59:09.648Z,6.51
2023-04-02T21:01:36.402Z,6.51
2023-04-02T21:04:03.871Z,6.49
2023-04-02T21:06:32.735Z,6.49
2023-04-02T21:09:00.338Z,6.45
2023-04-02T21:11:26.723Z,6.43
2023-04-02T21:13:53.312Z,6.37
2023-04-02T21:16:29.164Z,6.33
2023-04-02T21:18:58.273Z,6.33
2023-04-02T21:21:25.496Z,6.28
2023-04-02T21:24:00.289Z,6.23
2023-04-02T21:26:27.659Z,6.18
2023-04-02T21:28:54.691Z,6.14
2023-04-02T21:31:27.540Z,6.15
2023-04-02T21:33:56.624Z,6.14
2023-04-02T21:36:25.590Z,6.08
2023-04-02T21:38:57.662Z,6.07
2023-04-02T21:41:31.813Z,6.09
2023-04-02T21:43:59.569Z,6.05
2023-04-02T21:46:28.621Z,6.03
2023-04-02T21:48:58.006Z,5.99
2023-04-02T21:51:32.606Z,5.99
2023-04-02T21:54:00.249Z,5.94
2023-04-02T21:56:29.217Z,5.90
2023-04-02T21:59:01.797Z,5.86
2023-04-02T22:01:32.181Z,5.85
2023-04-02T22:04:01.327Z,5.80
2023-04-02T22:06:30.157Z,5.75
2023-04-02T22:09:02.068Z,5.71
2023-04-02T22:11:32.473Z,5.67
2023-04-02T22:13:59.114Z,5.61
2023-04-02T22:16:28.741Z,5.55
2023-04-02T22:18:57.013Z,5.56
2023-04-02T22:21:23.621Z,5.52
2023-04-02T22:23:50.324Z,5.50
2023-04-02T22:26:18.503Z,5.46
2023-04-02T22:28:45.670Z,5.46
2023-04-02T22:31:23.756Z,5.42
2023-04-02T22:33:52.606Z,5.37
2023-04-02T22:36:20.863Z,5.35
2023-04-02T22:38:47.365Z,5.30
2023-04-02T22:41:16.249Z,5.29
2023-04-02T22:43:44.119Z,5.31
2023-04-02T22:46:12.982Z,5.29
2023-04-02T22:48:40.174Z,5.26
2023-04-02T22:51:07.948Z,5.23
2023-04-02T22:53:35.321Z,5.20
2023-04-02T22:56:06.749Z,5.16
2023-04-02T22:58:33.935Z,5.14
2023-04-02T23:01:08.377Z,5.08
2023-04-02T23:03:34.817Z,5.02
2023-04-02T23:06:04.962Z,4.97
2023-04-02T23:08:31.525Z,4.95
2023-04-02T23:11:03.412Z,4.91
2023-04-02T23:13:29.877Z,4.86
2023-04-02T23:15:56.390Z,4.78
2023-04-02T23:18:23.016Z,4.76
2023-04-02T23:20:49.414Z,4.78
2023-04-02T23:23:15.780Z,4.79
2023-04-02T23:25:43.042Z,4.76
2023-04-02T23:28:10.574Z,4.77
2023-04-02T23:30:37.154Z,4.77
2023-04-02T23:33:04.751Z,4.72
2023-04-02T23:35:31.249Z,4.71
2023-04-02T23:37:57.638Z,4.73
2023-04-02T23:40:24.006Z,4.71
2023-04-02T23:42:50.464Z,4.71
2023-04-02T23:45:17.545Z,4.68
2023-04-02T23:47:43.967Z,4.68
2023-04-02T23:50:11.041Z,4.67
2023-04-02T23:52:37.530Z,4.63
2023-04-02T23:55:04.117Z,4.60
2023-04-02T23:57:30.800Z,4.62
2023-04-02T23:59:57.188Z,4.61
